Terminal Aerodrome Forecast
Issued by NWS

Home | Current Version | Previous Version | Text Only | Print | Product List | Glossary Off
Versions: 1 2 3 4 5 6 7 8 9 10 11 12 13 14 15 16 17 18 19 20 21 22 23 24 25 26 27 28

000
FTUS43 KICT 141547 AAD
TAFCNU
TAF AMD
KCNU 141547Z 1416/1512 15004KT P6SM BKN020
      TEMPO 1416/1417 BKN008
     FM141900 16005KT P6SM SCT030
     FM150600 16004KT P6SM BKN090
     FM151100 15004KT P6SM BKN030=

USA.gov is the U.S. government's official web portal to all federal, state and local government web resources and services.